sensor_id;sensor_type;location;lat;lon;timestamp;temperature;humidity
60909;DHT22;46780;48.128;-1.704;2022-11-14T00:00:03;13.30;94.10
60909;DHT22;46780;48.128;-1.704;2022-11-14T00:02:32;13.30;94.10
60909;DHT22;46780;48.128;-1.704;2022-11-14T00:04:58;13.30;94.10
60909;DHT22;46780;48.128;-1.704;2022-11-14T00:07:24;13.30;94.10
60909;DHT22;46780;48.128;-1.704;2022-11-14T00:09:51;13.20;94.10
60909;DHT22;46780;48.128;-1.704;2022-11-14T00:12:17;13.20;94.00
60909;DHT22;46780;48.128;-1.704;2022-11-14T00:14:44;13.20;94.00
60909;DHT22;46780;48.128;-1.704;2022-11-14T00:17:10;13.20;94.00
60909;DHT22;46780;48.128;-1.704;2022-11-14T00:19:38;13.20;94.00
60909;DHT22;46780;48.128;-1.704;2022-11-14T00:22:05;13.20;94.00
60909;DHT22;46780;48.128;-1.704;2022-11-14T00:24:31;13.10;94.00
60909;DHT22;46780;48.128;-1.704;2022-11-14T00:26:58;13.10;94.10
60909;DHT22;46780;48.128;-1.704;2022-11-14T00:29:24;13.10;94.10
60909;DHT22;46780;48.128;-1.704;2022-11-14T00:31:50;13.10;94.10
60909;DHT22;46780;48.128;-1.704;2022-11-14T00:34:17;13.10;94.20
60909;DHT22;46780;48.128;-1.704;2022-11-14T00:36:45;13.00;94.20
60909;DHT22;46780;48.128;-1.704;2022-11-14T00:39:12;13.00;94.20
60909;DHT22;46780;48.128;-1.704;2022-11-14T00:41:39;13.00;94.10
60909;DHT22;46780;48.128;-1.704;2022-11-14T00:44:06;13.00;94.10
60909;DHT22;46780;48.128;-1.704;2022-11-14T00:46:32;12.90;94.10
60909;DHT22;46780;48.128;-1.704;2022-11-14T00:48:59;12.90;94.10
60909;DHT22;46780;48.128;-1.704;2022-11-14T00:51:26;12.90;94.10
60909;DHT22;46780;48.128;-1.704;2022-11-14T00:53:54;12.90;94.10
60909;DHT22;46780;48.128;-1.704;2022-11-14T00:56:20;12.80;94.10
60909;DHT22;46780;48.128;-1.704;2022-11-14T00:58:47;12.80;94.10
60909;DHT22;46780;48.128;-1.704;2022-11-14T01:01:13;12.80;94.20
60909;DHT22;46780;48.128;-1.704;2022-11-14T01:03:40;12.80;94.10
60909;DHT22;46780;48.128;-1.704;2022-11-14T01:06:08;12.80;94.00
60909;DHT22;46780;48.128;-1.704;2022-11-14T01:08:36;12.80;94.00
60909;DHT22;46780;48.128;-1.704;2022-11-14T01:11:08;12.80;93.80
60909;DHT22;46780;48.128;-1.704;2022-11-14T01:13:35;12.80;93.80
60909;DHT22;46780;48.128;-1.704;2022-11-14T01:16:01;12.80;93.70
60909;DHT22;46780;48.128;-1.704;2022-11-14T01:18:28;12.80;93.70
60909;DHT22;46780;48.128;-1.704;2022-11-14T01:20:55;12.80;94.10
60909;DHT22;46780;48.128;-1.704;2022-11-14T01:23:21;12.80;93.60
60909;DHT22;46780;48.128;-1.704;2022-11-14T01:25:47;12.80;93.50
60909;DHT22;46780;48.128;-1.704;2022-11-14T01:28:17;12.70;93.50
60909;DHT22;46780;48.128;-1.704;2022-11-14T01:30:45;12.70;93.40
60909;DHT22;46780;48.128;-1.704;2022-11-14T01:33:11;12.70;93.40
60909;DHT22;46780;48.128;-1.704;2022-11-14T01:35:38;12.70;93.30
60909;DHT22;46780;48.128;-1.704;2022-11-14T01:38:05;12.70;93.20
60909;DHT22;46780;48.128;-1.704;2022-11-14T01:40:33;12.70;93.20
60909;DHT22;46780;48.128;-1.704;2022-11-14T01:43:22;12.70;93.20
60909;DHT22;46780;48.128;-1.704;2022-11-14T01:45:55;12.70;93.10
60909;DHT22;46780;48.128;-1.704;2022-11-14T01:48:25;12.60;93.10
60909;DHT22;46780;48.128;-1.704;2022-11-14T01:50:56;12.60;93.10
60909;DHT22;46780;48.128;-1.704;2022-11-14T01:53:24;12.50;93.10
60909;DHT22;46780;48.128;-1.704;2022-11-14T01:55:52;12.60;93.10
60909;DHT22;46780;48.128;-1.704;2022-11-14T01:58:21;12.50;93.10
60909;DHT22;46780;48.128;-1.704;2022-11-14T02:00:48;12.50;93.20
60909;DHT22;46780;48.128;-1.704;2022-11-14T02:03:15;12.50;93.30
60909;DHT22;46780;48.128;-1.704;2022-11-14T02:05:44;12.50;93.40
60909;DHT22;46780;48.128;-1.704;2022-11-14T02:08:13;12.50;93.40
60909;DHT22;46780;48.128;-1.704;2022-11-14T02:10:39;12.40;93.40
60909;DHT22;46780;48.128;-1.704;2022-11-14T02:13:06;12.40;93.40
60909;DHT22;46780;48.128;-1.704;2022-11-14T02:15:35;12.40;93.40
60909;DHT22;46780;48.128;-1.704;2022-11-14T02:18:03;12.40;93.40
60909;DHT22;46780;48.128;-1.704;2022-11-14T02:20:34;12.40;93.40
60909;DHT22;46780;48.128;-1.704;2022-11-14T02:23:01;12.40;93.40
60909;DHT22;46780;48.128;-1.704;2022-11-14T02:25:28;12.40;93.50
60909;DHT22;46780;48.128;-1.704;2022-11-14T02:27:55;12.40;93.50
60909;DHT22;46780;48.128;-1.704;2022-11-14T02:30:22;12.40;93.50
60909;DHT22;46780;48.128;-1.704;2022-11-14T02:32:49;12.40;93.50
60909;DHT22;46780;48.128;-1.704;2022-11-14T02:35:15;12.40;93.60
60909;DHT22;46780;48.128;-1.704;2022-11-14T02:37:43;12.40;93.70
60909;DHT22;46780;48.128;-1.704;2022-11-14T02:40:10;12.30;93.80
60909;DHT22;46780;48.128;-1.704;2022-11-14T02:42:37;12.30;93.80
60909;DHT22;46780;48.128;-1.704;2022-11-14T02:45:04;12.30;93.80
60909;DHT22;46780;48.128;-1.704;2022-11-14T02:47:31;12.40;93.90
60909;DHT22;46780;48.128;-1.704;2022-11-14T02:49:57;12.40;93.90
60909;DHT22;46780;48.128;-1.704;2022-11-14T02:52:24;12.30;93.90
60909;DHT22;46780;48.128;-1.704;2022-11-14T02:54:52;12.30;93.90
60909;DHT22;46780;48.128;-1.704;2022-11-14T02:57:18;12.30;93.90
60909;DHT22;46780;48.128;-1.704;2022-11-14T02:59:44;12.30;94.00
60909;DHT22;46780;48.128;-1.704;2022-11-14T03:02:11;12.40;94.00
60909;DHT22;46780;48.128;-1.704;2022-11-14T03:04:37;12.40;94.10
60909;DHT22;46780;48.128;-1.704;2022-11-14T03:07:04;12.40;94.10
60909;DHT22;46780;48.128;-1.704;2022-11-14T03:09:30;12.40;94.10
60909;DHT22;46780;48.128;-1.704;2022-11-14T03:11:58;12.40;94.10
60909;DHT22;46780;48.128;-1.704;2022-11-14T03:14:24;12.40;94.20
60909;DHT22;46780;48.128;-1.704;2022-11-14T03:16:53;12.40;94.20
60909;DHT22;46780;48.128;-1.704;2022-11-14T03:19:20;12.40;94.20
60909;DHT22;46780;48.128;-1.704;2022-11-14T03:21:46;12.40;94.10
60909;DHT22;46780;48.128;-1.704;2022-11-14T03:24:13;12.40;94.10
60909;DHT22;46780;48.128;-1.704;2022-11-14T03:26:39;12.40;94.10
60909;DHT22;46780;48.128;-1.704;2022-11-14T03:29:07;12.50;94.10
60909;DHT22;46780;48.128;-1.704;2022-11-14T03:31:34;12.40;94.00
60909;DHT22;46780;48.128;-1.704;2022-11-14T03:34:00;12.50;94.00
60909;DHT22;46780;48.128;-1.704;2022-11-14T03:36:27;12.40;94.00
60909;DHT22;46780;48.128;-1.704;2022-11-14T03:38:53;12.40;93.90
60909;DHT22;46780;48.128;-1.704;2022-11-14T03:41:20;12.40;93.90
60909;DHT22;46780;48.128;-1.704;2022-11-14T03:43:46;12.40;93.80
60909;DHT22;46780;48.128;-1.704;2022-11-14T03:46:14;12.40;93.70
60909;DHT22;46780;48.128;-1.704;2022-11-14T03:48:40;12.40;93.70
60909;DHT22;46780;48.128;-1.704;2022-11-14T03:51:07;12.40;93.60
60909;DHT22;46780;48.128;-1.704;2022-11-14T03:53:34;12.30;93.60
60909;DHT22;46780;48.128;-1.704;2022-11-14T03:56:00;12.30;93.60
60909;DHT22;46780;48.128;-1.704;2022-11-14T03:58:27;12.30;93.60
60909;DHT22;46780;48.128;-1.704;2022-11-14T04:00:53;12.30;93.70
60909;DHT22;46780;48.128;-1.704;2022-11-14T04:03:21;12.30;93.70
60909;DHT22;46780;48.128;-1.704;2022-11-14T04:05:48;12.30;93.70
60909;DHT22;46780;48.128;-1.704;2022-11-14T04:08:14;12.30;93.70
60909;DHT22;46780;48.128;-1.704;2022-11-14T04:10:41;12.30;93.80
60909;DHT22;46780;48.128;-1.704;2022-11-14T04:13:08;12.30;93.80
60909;DHT22;46780;48.128;-1.704;2022-11-14T04:15:34;12.30;93.80
60909;DHT22;46780;48.128;-1.704;2022-11-14T04:18:01;12.30;93.70
60909;DHT22;46780;48.128;-1.704;2022-11-14T04:20:29;12.30;93.70
60909;DHT22;46780;48.128;-1.704;2022-11-14T04:22:55;12.30;93.60
60909;DHT22;46780;48.128;-1.704;2022-11-14T04:25:22;12.30;93.60
60909;DHT22;46780;48.128;-1.704;2022-11-14T04:27:48;12.30;93.60
60909;DHT22;46780;48.128;-1.704;2022-11-14T04:30:15;12.20;93.60
60909;DHT22;46780;48.128;-1.704;2022-11-14T04:32:43;12.20;93.60
60909;DHT22;46780;48.128;-1.704;2022-11-14T04:35:10;12.20;93.60
60909;DHT22;46780;48.128;-1.704;2022-11-14T04:37:38;12.20;93.70
60909;DHT22;46780;48.128;-1.704;2022-11-14T04:40:05;12.20;93.70
60909;DHT22;46780;48.128;-1.704;2022-11-14T04:42:32;12.10;93.70
60909;DHT22;46780;48.128;-1.704;2022-11-14T04:44:58;12.10;93.70
60909;DHT22;46780;48.128;-1.704;2022-11-14T04:47:25;12.10;93.70
60909;DHT22;46780;48.128;-1.704;2022-11-14T04:49:51;12.10;93.70
60909;DHT22;46780;48.128;-1.704;2022-11-14T04:52:18;12.10;93.70
60909;DHT22;46780;48.128;-1.704;2022-11-14T04:54:46;12.10;93.80
60909;DHT22;46780;48.128;-1.704;2022-11-14T04:57:13;12.00;93.90
60909;DHT22;46780;48.128;-1.704;2022-11-14T04:59:39;12.00;93.90
60909;DHT22;46780;48.128;-1.704;2022-11-14T05:02:06;12.00;94.00
60909;DHT22;46780;48.128;-1.704;2022-11-14T05:04:32;12.00;94.00
60909;DHT22;46780;48.128;-1.704;2022-11-14T05:06:59;12.00;94.00
60909;DHT22;46780;48.128;-1.704;2022-11-14T05:09:25;12.00;94.20
60909;DHT22;46780;48.128;-1.704;2022-11-14T05:11:53;12.00;94.10
60909;DHT22;46780;48.128;-1.704;2022-11-14T05:14:19;12.00;94.10
60909;DHT22;46780;48.128;-1.704;2022-11-14T05:16:46;12.00;94.10
60909;DHT22;46780;48.128;-1.704;2022-11-14T05:19:12;12.00;94.10
60909;DHT22;46780;48.128;-1.704;2022-11-14T05:21:39;12.00;94.10
60909;DHT22;46780;48.128;-1.704;2022-11-14T05:24:06;12.00;94.30
60909;DHT22;46780;48.128;-1.704;2022-11-14T05:26:32;12.00;94.30
60909;DHT22;46780;48.128;-1.704;2022-11-14T05:29:00;12.00;94.40
60909;DHT22;46780;48.128;-1.704;2022-11-14T05:31:27;12.00;94.40
60909;DHT22;46780;48.128;-1.704;2022-11-14T05:33:53;12.00;94.40
60909;DHT22;46780;48.128;-1.704;2022-11-14T05:36:20;12.00;94.30
60909;DHT22;46780;48.128;-1.704;2022-11-14T05:38:46;12.10;94.30
60909;DHT22;46780;48.128;-1.704;2022-11-14T05:41:14;12.10;94.30
60909;DHT22;46780;48.128;-1.704;2022-11-14T05:43:41;12.10;94.30
60909;DHT22;46780;48.128;-1.704;2022-11-14T05:46:12;12.10;94.30
60909;DHT22;46780;48.128;-1.704;2022-11-14T05:48:39;12.10;94.30
60909;DHT22;46780;48.128;-1.704;2022-11-14T05:51:08;12.10;94.30
60909;DHT22;46780;48.128;-1.704;2022-11-14T05:53:35;12.10;94.20
60909;DHT22;46780;48.128;-1.704;2022-11-14T05:56:02;12.10;94.30
60909;DHT22;46780;48.128;-1.704;2022-11-14T05:58:30;12.10;94.40
60909;DHT22;46780;48.128;-1.704;2022-11-14T06:01:01;12.10;94.40
60909;DHT22;46780;48.128;-1.704;2022-11-14T06:03:31;12.10;94.50
60909;DHT22;46780;48.128;-1.704;2022-11-14T06:05:59;12.10;94.40
60909;DHT22;46780;48.128;-1.704;2022-11-14T06:08:26;12.10;94.50
60909;DHT22;46780;48.128;-1.704;2022-11-14T06:10:53;12.10;94.60
60909;DHT22;46780;48.128;-1.704;2022-11-14T06:13:19;12.20;94.60
60909;DHT22;46780;48.128;-1.704;2022-11-14T06:15:46;12.20;94.50
60909;DHT22;46780;48.128;-1.704;2022-11-14T06:18:13;12.20;94.40
60909;DHT22;46780;48.128;-1.704;2022-11-14T06:20:41;12.20;94.40
60909;DHT22;46780;48.128;-1.704;2022-11-14T06:23:07;12.20;94.40
60909;DHT22;46780;48.128;-1.704;2022-11-14T06:25:34;12.20;94.60
60909;DHT22;46780;48.128;-1.704;2022-11-14T06:28:00;12.20;94.60
60909;DHT22;46780;48.128;-1.704;2022-11-14T06:30:27;12.20;94.50
60909;DHT22;46780;48.128;-1.704;2022-11-14T06:32:56;12.20;94.50
60909;DHT22;46780;48.128;-1.704;2022-11-14T06:35:22;12.20;94.60
60909;DHT22;46780;48.128;-1.704;2022-11-14T06:37:50;12.10;94.60
60909;DHT22;46780;48.128;-1.704;2022-11-14T06:40:17;12.10;94.70
60909;DHT22;46780;48.128;-1.704;2022-11-14T06:42:43;12.10;94.70
60909;DHT22;46780;48.128;-1.704;2022-11-14T06:45:10;12.20;94.70
60909;DHT22;46780;48.128;-1.704;2022-11-14T06:47:36;12.10;94.70
60909;DHT22;46780;48.128;-1.704;2022-11-14T06:50:03;12.20;94.70
60909;DHT22;46780;48.128;-1.704;2022-11-14T06:52:30;12.20;94.60
60909;DHT22;46780;48.128;-1.704;2022-11-14T06:54:58;12.20;94.70
60909;DHT22;46780;48.128;-1.704;2022-11-14T06:57:24;12.20;94.70
60909;DHT22;46780;48.128;-1.704;2022-11-14T06:59:51;12.10;94.60
60909;DHT22;46780;48.128;-1.704;2022-11-14T07:02:17;12.10;94.70
60909;DHT22;46780;48.128;-1.704;2022-11-14T07:04:44;12.10;94.70
60909;DHT22;46780;48.128;-1.704;2022-11-14T07:07:10;12.10;94.80
60909;DHT22;46780;48.128;-1.704;2022-11-14T07:09:37;12.10;94.90
60909;DHT22;46780;48.128;-1.704;2022-11-14T07:12:05;12.10;94.90
60909;DHT22;46780;48.128;-1.704;2022-11-14T07:14:32;12.20;95.00
60909;DHT22;46780;48.128;-1.704;2022-11-14T07:16:58;12.20;95.00
60909;DHT22;46780;48.128;-1.704;2022-11-14T07:19:25;12.20;95.00
60909;DHT22;46780;48.128;-1.704;2022-11-14T07:21:51;12.20;95.10
60909;DHT22;46780;48.128;-1.704;2022-11-14T07:24:18;12.30;95.10
60909;DHT22;46780;48.128;-1.704;2022-11-14T07:26:44;12.30;95.10
60909;DHT22;46780;48.128;-1.704;2022-11-14T07:29:12;12.30;95.10
60909;DHT22;46780;48.128;-1.704;2022-11-14T07:31:39;12.40;95.00
60909;DHT22;46780;48.128;-1.704;2022-11-14T07:34:07;12.40;95.00
60909;DHT22;46780;48.128;-1.704;2022-11-14T07:36:33;12.40;94.90
60909;DHT22;46780;48.128;-1.704;2022-11-14T07:39:00;12.40;94.90
60909;DHT22;46780;48.128;-1.704;2022-11-14T07:41:26;12.40;95.00
60909;DHT22;46780;48.128;-1.704;2022-11-14T07:43:53;12.40;95.10
60909;DHT22;46780;48.128;-1.704;2022-11-14T07:46:21;12.50;95.30
60909;DHT22;46780;48.128;-1.704;2022-11-14T07:48:47;12.40;95.30
60909;DHT22;46780;48.128;-1.704;2022-11-14T07:51:15;12.50;95.40
60909;DHT22;46780;48.128;-1.704;2022-11-14T07:53:42;12.50;95.30
60909;DHT22;46780;48.128;-1.704;2022-11-14T07:56:08;12.60;95.40
60909;DHT22;46780;48.128;-1.704;2022-11-14T07:58:35;12.60;95.30
60909;DHT22;46780;48.128;-1.704;2022-11-14T08:01:04;12.60;95.20
60909;DHT22;46780;48.128;-1.704;2022-11-14T08:03:32;12.70;95.30
60909;DHT22;46780;48.128;-1.704;2022-11-14T08:06:00;12.70;95.20
60909;DHT22;46780;48.128;-1.704;2022-11-14T08:08:26;12.70;95.30
60909;DHT22;46780;48.128;-1.704;2022-11-14T08:10:55;12.70;95.70
60909;DHT22;46780;48.128;-1.704;2022-11-14T08:13:21;12.70;95.30
60909;DHT22;46780;48.128;-1.704;2022-11-14T08:15:48;12.80;95.40
60909;DHT22;46780;48.128;-1.704;2022-11-14T08:18:15;12.80;95.40
60909;DHT22;46780;48.128;-1.704;2022-11-14T08:20:43;12.70;95.50
60909;DHT22;46780;48.128;-1.704;2022-11-14T08:23:10;12.70;95.60
60909;DHT22;46780;48.128;-1.704;2022-11-14T08:25:36;12.70;95.80
60909;DHT22;46780;48.128;-1.704;2022-11-14T08:28:03;12.70;95.80
60909;DHT22;46780;48.128;-1.704;2022-11-14T08:30:30;12.70;96.30
60909;DHT22;46780;48.128;-1.704;2022-11-14T08:32:56;12.80;95.90
60909;DHT22;46780;48.128;-1.704;2022-11-14T08:35:23;12.80;95.90
60909;DHT22;46780;48.128;-1.704;2022-11-14T08:37:50;12.80;95.80
60909;DHT22;46780;48.128;-1.704;2022-11-14T08:40:17;12.80;95.90
60909;DHT22;46780;48.128;-1.704;2022-11-14T08:42:43;12.80;95.90
60909;DHT22;46780;48.128;-1.704;2022-11-14T08:45:10;12.80;96.00
60909;DHT22;46780;48.128;-1.704;2022-11-14T08:47:36;12.80;96.00
60909;DHT22;46780;48.128;-1.704;2022-11-14T08:50:04;12.80;96.10
60909;DHT22;46780;48.128;-1.704;2022-11-14T08:52:30;12.80;96.20
60909;DHT22;46780;48.128;-1.704;2022-11-14T08:54:58;12.80;96.30
60909;DHT22;46780;48.128;-1.704;2022-11-14T08:57:25;12.80;96.40
60909;DHT22;46780;48.128;-1.704;2022-11-14T08:59:51;12.70;96.40
60909;DHT22;46780;48.128;-1.704;2022-11-14T09:02:18;12.70;96.50
60909;DHT22;46780;48.128;-1.704;2022-11-14T09:04:44;12.80;96.70
60909;DHT22;46780;48.128;-1.704;2022-11-14T09:07:11;12.80;96.70
60909;DHT22;46780;48.128;-1.704;2022-11-14T09:09:38;12.80;97.30
60909;DHT22;46780;48.128;-1.704;2022-11-14T09:12:06;12.80;97.00
60909;DHT22;46780;48.128;-1.704;2022-11-14T09:14:32;12.80;97.00
60909;DHT22;46780;48.128;-1.704;2022-11-14T09:16:59;12.80;97.10
60909;DHT22;46780;48.128;-1.704;2022-11-14T09:19:25;12.90;97.20
60909;DHT22;46780;48.128;-1.704;2022-11-14T09:21:52;12.90;97.30
60909;DHT22;46780;48.128;-1.704;2022-11-14T09:24:20;12.90;97.30
60909;DHT22;46780;48.128;-1.704;2022-11-14T09:26:46;13.00;97.30
60909;DHT22;46780;48.128;-1.704;2022-11-14T09:29:15;13.00;97.30
60909;DHT22;46780;48.128;-1.704;2022-11-14T09:31:41;13.00;97.50
60909;DHT22;46780;48.128;-1.704;2022-11-14T09:34:08;13.10;97.60
60909;DHT22;46780;48.128;-1.704;2022-11-14T09:36:34;13.20;97.70
60909;DHT22;46780;48.128;-1.704;2022-11-14T09:39:01;13.30;97.70
60909;DHT22;46780;48.128;-1.704;2022-11-14T09:41:39;13.30;97.50
60909;DHT22;46780;48.128;-1.704;2022-11-14T09:44:44;13.40;97.40
60909;DHT22;46780;48.128;-1.704;2022-11-14T09:47:17;13.40;97.30
60909;DHT22;46780;48.128;-1.704;2022-11-14T09:49:44;13.40;97.40
60909;DHT22;46780;48.128;-1.704;2022-11-14T09:52:18;13.40;97.30
60909;DHT22;46780;48.128;-1.704;2022-11-14T09:54:52;13.40;97.40
60909;DHT22;46780;48.128;-1.704;2022-11-14T09:57:20;13.40;97.40
60909;DHT22;46780;48.128;-1.704;2022-11-14T09:59:48;13.30;97.40
60909;DHT22;46780;48.128;-1.704;2022-11-14T10:02:33;13.30;97.80
60909;DHT22;46780;48.128;-1.704;2022-11-14T10:05:20;13.30;97.90
60909;DHT22;46780;48.128;-1.704;2022-11-14T10:07:59;13.30;98.10
60909;DHT22;46780;48.128;-1.704;2022-11-14T10:10:39;13.30;98.20
60909;DHT22;46780;48.128;-1.704;2022-11-14T10:13:15;13.30;98.30
60909;DHT22;46780;48.128;-1.704;2022-11-14T10:15:53;13.30;98.50
60909;DHT22;46780;48.128;-1.704;2022-11-14T10:18:34;13.30;98.60
60909;DHT22;46780;48.128;-1.704;2022-11-14T10:21:26;13.30;98.90
60909;DHT22;46780;48.128;-1.704;2022-11-14T10:24:00;13.40;99.20
60909;DHT22;46780;48.128;-1.704;2022-11-14T10:26:30;13.50;99.20
60909;DHT22;46780;48.128;-1.704;2022-11-14T10:29:18;13.60;99.10
60909;DHT22;46780;48.128;-1.704;2022-11-14T10:31:54;13.70;99.00
60909;DHT22;46780;48.128;-1.704;2022-11-14T10:34:29;13.70;98.90
60909;DHT22;46780;48.128;-1.704;2022-11-14T10:37:01;13.80;98.90
60909;DHT22;46780;48.128;-1.704;2022-11-14T10:39:36;13.80;99.00
60909;DHT22;46780;48.128;-1.704;2022-11-14T10:42:10;13.80;99.00
60909;DHT22;46780;48.128;-1.704;2022-11-14T10:44:47;13.90;99.20
60909;DHT22;46780;48.128;-1.704;2022-11-14T10:47:20;13.90;99.30
60909;DHT22;46780;48.128;-1.704;2022-11-14T10:49:51;13.90;99.60
60909;DHT22;46780;48.128;-1.704;2022-11-14T10:52:21;14.00;99.90
60909;DHT22;46780;48.128;-1.704;2022-11-14T10:54:55;14.10;99.90
60909;DHT22;46780;48.128;-1.704;2022-11-14T10:57:24;14.20;99.90
60909;DHT22;46780;48.128;-1.704;2022-11-14T10:59:52;14.20;99.90
60909;DHT22;46780;48.128;-1.704;2022-11-14T11:02:20;14.30;99.90
60909;DHT22;46780;48.128;-1.704;2022-11-14T11:04:47;14.30;99.90
60909;DHT22;46780;48.128;-1.704;2022-11-14T11:07:22;14.30;99.90
60909;DHT22;46780;48.128;-1.704;2022-11-14T11:09:58;14.30;99.90
60909;DHT22;46780;48.128;-1.704;2022-11-14T11:12:41;14.30;99.90
60909;DHT22;46780;48.128;-1.704;2022-11-14T11:15:13;14.30;99.90
60909;DHT22;46780;48.128;-1.704;2022-11-14T11:17:53;14.30;99.90
60909;DHT22;46780;48.128;-1.704;2022-11-14T11:20:26;14.30;99.90
60909;DHT22;46780;48.128;-1.704;2022-11-14T11:23:01;14.30;99.90
60909;DHT22;46780;48.128;-1.704;2022-11-14T11:25:29;14.30;99.90
60909;DHT22;46780;48.128;-1.704;2022-11-14T11:28:06;14.30;99.90
60909;DHT22;46780;48.128;-1.704;2022-11-14T11:30:36;14.30;99.90
60909;DHT22;46780;48.128;-1.704;2022-11-14T11:33:23;14.40;99.90
60909;DHT22;46780;48.128;-1.704;2022-11-14T11:35:53;14.50;99.90
60909;DHT22;46780;48.128;-1.704;2022-11-14T11:38:21;14.60;99.90
60909;DHT22;46780;48.128;-1.704;2022-11-14T11:40:53;14.60;99.50
60909;DHT22;46780;48.128;-1.704;2022-11-14T11:43:26;14.60;99.30
60909;DHT22;46780;48.128;-1.704;2022-11-14T11:45:55;14.60;98.50
60909;DHT22;46780;48.128;-1.704;2022-11-14T11:48:30;14.70;98.00
60909;DHT22;46780;48.128;-1.704;2022-11-14T11:51:00;14.70;98.50
60909;DHT22;46780;48.128;-1.704;2022-11-14T11:53:30;14.80;98.30
60909;DHT22;46780;48.128;-1.704;2022-11-14T11:56:04;14.90;97.20
60909;DHT22;46780;48.128;-1.704;2022-11-14T11:58:38;14.90;96.40
60909;DHT22;46780;48.128;-1.704;2022-11-14T12:01:09;14.90;96.30
60909;DHT22;46780;48.128;-1.704;2022-11-14T12:03:37;15.00;96.10
60909;DHT22;46780;48.128;-1.704;2022-11-14T12:06:11;15.10;95.30
60909;DHT22;46780;48.128;-1.704;2022-11-14T12:08:48;15.20;94.00
60909;DHT22;46780;48.128;-1.704;2022-11-14T12:11:20;15.10;93.90
60909;DHT22;46780;48.128;-1.704;2022-11-14T12:19:56;15.00;93.50
60909;DHT22;46780;48.128;-1.704;2022-11-14T12:22:48;15.00;92.90
60909;DHT22;46780;48.128;-1.704;2022-11-14T12:25:41;15.00;93.00
60909;DHT22;46780;48.128;-1.704;2022-11-14T12:28:34;15.00;93.70
60909;DHT22;46780;48.128;-1.704;2022-11-14T12:31:08;15.20;93.30
60909;DHT22;46780;48.128;-1.704;2022-11-14T12:33:37;15.40;92.50
60909;DHT22;46780;48.128;-1.704;2022-11-14T12:36:10;15.60;91.50
60909;DHT22;46780;48.128;-1.704;2022-11-14T12:38:41;16.00;90.60
60909;DHT22;46780;48.128;-1.704;2022-11-14T12:41:09;16.10;88.30
60909;DHT22;46780;48.128;-1.704;2022-11-14T12:43:38;16.10;86.50
60909;DHT22;46780;48.128;-1.704;2022-11-14T12:46:05;16.00;87.20
60909;DHT22;46780;48.128;-1.704;2022-11-14T12:48:34;15.80;88.30
60909;DHT22;46780;48.128;-1.704;2022-11-14T12:51:03;15.70;88.70
60909;DHT22;46780;48.128;-1.704;2022-11-14T12:53:41;15.70;89.70
60909;DHT22;46780;48.128;-1.704;2022-11-14T12:56:40;15.60;90.00
60909;DHT22;46780;48.128;-1.704;2022-11-14T12:59:21;15.60;90.20
60909;DHT22;46780;48.128;-1.704;2022-11-14T13:01:57;15.60;90.10
60909;DHT22;46780;48.128;-1.704;2022-11-14T13:04:34;15.60;90.20
60909;DHT22;46780;48.128;-1.704;2022-11-14T13:07:18;15.50;90.40
60909;DHT22;46780;48.128;-1.704;2022-11-14T13:10:02;15.50;90.60
60909;DHT22;46780;48.128;-1.704;2022-11-14T13:12:32;15.50;90.50
60909;DHT22;46780;48.128;-1.704;2022-11-14T13:14:59;15.50;90.20
60909;DHT22;46780;48.128;-1.704;2022-11-14T13:17:38;15.40;90.50
60909;DHT22;46780;48.128;-1.704;2022-11-14T13:20:29;15.40;90.10
60909;DHT22;46780;48.128;-1.704;2022-11-14T13:22:56;15.40;89.40
60909;DHT22;46780;48.128;-1.704;2022-11-14T13:25:24;15.30;88.70
60909;DHT22;46780;48.128;-1.704;2022-11-14T13:27:51;15.30;88.40
60909;DHT22;46780;48.128;-1.704;2022-11-14T13:30:17;15.20;88.00
60909;DHT22;46780;48.128;-1.704;2022-11-14T13:33:02;15.10;88.20
60909;DHT22;46780;48.128;-1.704;2022-11-14T13:35:56;14.90;87.80
60909;DHT22;46780;48.128;-1.704;2022-11-14T13:48:08;15.60;91.10
60909;DHT22;46780;48.128;-1.704;2022-11-14T13:50:38;16.20;88.30
60909;DHT22;46780;48.128;-1.704;2022-11-14T13:53:11;16.60;85.50
60909;DHT22;46780;48.128;-1.704;2022-11-14T13:55:53;16.80;82.10
60909;DHT22;46780;48.128;-1.704;2022-11-14T13:58:41;16.80;81.60
60909;DHT22;46780;48.128;-1.704;2022-11-14T14:01:23;16.80;80.90
60909;DHT22;46780;48.128;-1.704;2022-11-14T14:04:15;16.80;81.50
60909;DHT22;46780;48.128;-1.704;2022-11-14T14:06:50;16.80;79.50
60909;DHT22;46780;48.128;-1.704;2022-11-14T14:09:24;16.70;78.80
60909;DHT22;46780;48.128;-1.704;2022-11-14T14:12:05;16.50;79.40
60909;DHT22;46780;48.128;-1.704;2022-11-14T14:15:01;16.20;79.50
60909;DHT22;46780;48.128;-1.704;2022-11-14T14:17:36;15.90;79.40
60909;DHT22;46780;48.128;-1.704;2022-11-14T14:20:18;15.70;79.90
60909;DHT22;46780;48.128;-1.704;2022-11-14T14:22:54;15.50;80.40
60909;DHT22;46780;48.128;-1.704;2022-11-14T14:25:29;15.40;81.10
60909;DHT22;46780;48.128;-1.704;2022-11-14T14:28:05;15.30;81.70
60909;DHT22;46780;48.128;-1.704;2022-11-14T14:30:35;15.30;81.60
60909;DHT22;46780;48.128;-1.704;2022-11-14T14:33:10;15.20;81.70
60909;DHT22;46780;48.128;-1.704;2022-11-14T14:35:37;15.30;79.80
60909;DHT22;46780;48.128;-1.704;2022-11-14T14:38:10;15.20;77.20
60909;DHT22;46780;48.128;-1.704;2022-11-14T14:40:39;15.20;77.00
60909;DHT22;46780;48.128;-1.704;2022-11-14T14:43:06;15.20;76.50
60909;DHT22;46780;48.128;-1.704;2022-11-14T14:45:43;15.40;76.60
60909;DHT22;46780;48.128;-1.704;2022-11-14T14:48:13;15.60;76.00
60909;DHT22;46780;48.128;-1.704;2022-11-14T14:50:46;15.90;75.00
60909;DHT22;46780;48.128;-1.704;2022-11-14T14:53:18;16.10;73.90
60909;DHT22;46780;48.128;-1.704;2022-11-14T14:55:51;16.30;73.40
60909;DHT22;46780;48.128;-1.704;2022-11-14T14:58:26;16.50;72.40
60909;DHT22;46780;48.128;-1.704;2022-11-14T15:00:56;16.60;71.50
60909;DHT22;46780;48.128;-1.704;2022-11-14T15:03:25;16.60;70.80
60909;DHT22;46780;48.128;-1.704;2022-11-14T15:06:00;16.60;71.10
60909;DHT22;46780;48.128;-1.704;2022-11-14T15:08:28;16.60;70.50
60909;DHT22;46780;48.128;-1.704;2022-11-14T15:10:57;16.60;70.80
60909;DHT22;46780;48.128;-1.704;2022-11-14T15:13:26;16.60;71.00
60909;DHT22;46780;48.128;-1.704;2022-11-14T15:15:55;16.60;70.70
60909;DHT22;46780;48.128;-1.704;2022-11-14T15:18:24;16.50;71.10
60909;DHT22;46780;48.128;-1.704;2022-11-14T15:21:08;16.60;71.20
60909;DHT22;46780;48.128;-1.704;2022-11-14T15:23:36;16.50;70.30
60909;DHT22;46780;48.128;-1.704;2022-11-14T15:26:08;16.30;71.30
60909;DHT22;46780;48.128;-1.704;2022-11-14T15:28:36;16.20;72.10
60909;DHT22;46780;48.128;-1.704;2022-11-14T15:31:04;16.10;72.30
60909;DHT22;46780;48.128;-1.704;2022-11-14T15:33:32;15.90;73.00
60909;DHT22;46780;48.128;-1.704;2022-11-14T15:36:06;15.80;74.00
60909;DHT22;46780;48.128;-1.704;2022-11-14T15:38:33;15.80;74.60
60909;DHT22;46780;48.128;-1.704;2022-11-14T15:41:24;15.70;75.00
60909;DHT22;46780;48.128;-1.704;2022-11-14T15:43:53;15.60;75.30
60909;DHT22;46780;48.128;-1.704;2022-11-14T15:46:41;15.60;75.80